Time;durP1;ratioP1;P1;durP2;ratioP2;P2;SDS_P1;SDS_P2;PMS_P1;PMS_P2;Temp;Humidity;BMP_temperature;BMP_pressure;BME280_temperature;BME280_humidity;BME280_pressure;Samples;Min_cycle;Max_cycle;Signal;HPM_P1;HPM_P2
2022/05/25 00:01:37;;;;;;;23.00;20.60;;;;;;;20.54;68.04;99365.28;5012925;28;20518;-86
2022/05/25 00:04:04;;;;;;;25.00;22.35;;;;;;;20.84;68.06;99405.16;5012674;28;20037;-86
2022/05/25 00:06:30;;;;;;;29.55;25.52;;;;;;;20.67;68.04;99399.78;5011849;28;20037;-87
2022/05/25 00:08:56;;;;;;;31.98;27.38;;;;;;;20.11;67.97;99320.38;5012603;28;20469;-86
2022/05/25 00:11:21;;;;;;;31.10;27.85;;;;;;;20.69;67.95;99410.28;5011165;28;20030;-86
2022/05/25 00:13:47;;;;;;;31.48;26.67;;;;;;;20.02;67.69;99317.28;5011310;28;20026;-86
2022/05/25 00:16:13;;;;;;;32.63;29.13;;;;;;;18.90;67.47;99160.09;5010881;28;20087;-86
2022/05/25 00:19:58;;;;;;;42.40;31.88;;;;;;;20.48;67.70;99426.06;5012285;28;20490;-86
2022/05/25 00:21:24;;;;;;;33.92;30.35;;;;;;;20.08;67.78;99377.97;5012740;28;20056;-86
2022/05/25 00:23:50;;;;;;;31.83;28.58;;;;;;;19.55;68.30;99311.44;5012491;28;20487;-86
2022/05/25 00:26:15;;;;;;;29.50;26.38;;;;;;;19.96;68.34;99417.41;5012604;28;20487;-86
2022/05/25 00:28:41;;;;;;;31.70;28.27;;;;;;;19.90;68.11;99383.53;5010954;28;20052;-86
2022/05/25 00:31:08;;;;;;;29.48;26.38;;;;;;;19.99;68.28;99420.41;5012195;28;20458;-87
2022/05/25 00:33:34;;;;;;;30.52;27.30;;;;;;;19.26;68.27;99295.34;5010875;28;20160;-87
2022/05/25 00:35:59;;;;;;;30.05;26.92;;;;;;;19.55;68.32;99351.59;5012226;28;20057;-86
2022/05/25 00:38:25;;;;;;;30.63;27.52;;;;;;;19.20;68.41;99295.47;5012045;28;20464;-86
2022/05/25 00:40:50;;;;;;;31.05;27.65;;;;;;;19.75;68.37;99386.75;5010977;28;20033;-86
2022/05/25 00:43:16;;;;;;;29.77;26.40;;;;;;;19.97;68.23;99421.72;5012367;28;20030;-86
2022/05/25 00:45:55;;;;;;;27.85;24.88;;;;;;;19.47;68.34;99343.91;5010755;28;20037;-86
2022/05/25 00:48:36;;;;;;;31.30;26.02;;;;;;;20.01;68.35;99449.66;5010940;28;20021;-86
2022/05/25 00:51:21;;;;;;;28.45;24.05;;;;;;;19.19;68.24;99342.84;5011094;28;20034;-86
2022/05/25 00:53:56;;;;;;;27.77;24.90;;;;;;;19.99;67.88;99447.22;5012156;28;20049;-86
2022/05/25 00:56:24;;;;;;;26.63;23.80;;;;;;;19.92;67.75;99451.91;5012260;28;20087;-86
2022/05/25 00:58:59;;;;;;;28.10;24.00;;;;;;;19.86;67.91;99458.22;5027084;28;20462;-86
2022/05/25 01:01:25;;;;;;;31.75;25.17;;;;;;;19.10;68.13;99360.34;5010647;28;20037;-86
2022/05/25 01:03:50;;;;;;;31.52;24.40;;;;;;;19.82;68.25;99465.13;5011612;28;20101;-86
2022/05/25 01:06:47;;;;;;;27.58;23.20;;;;;;;19.66;67.95;99456.00;5012097;28;20053;-86
2022/05/25 01:09:34;;;;;;;29.35;24.27;;;;;;;19.64;68.08;99447.38;5011691;28;20625;-86
2022/05/25 01:12:02;;;;;;;42.05;26.92;;;;;;;19.63;68.00;99456.47;5011587;28;20021;-86
2022/05/25 01:14:52;;;;;;;25.08;22.42;;;;;;;19.39;68.13;99456.75;5010355;28;20084;-86
2022/05/25 01:17:21;;;;;;;27.30;23.83;;;;;;;19.52;68.10;99464.50;5014090;28;20029;-86
2022/05/25 01:20:14;;;;;;;25.38;21.88;;;;;;;19.54;68.25;99462.44;5014816;28;20108;-86
2022/05/25 01:23:10;;;;;;;23.08;20.67;;;;;;;19.56;67.84;99466.50;5039668;28;20009;-85
2022/05/25 01:25:57;;;;;;;22.80;20.40;;;;;;;19.56;67.71;99479.09;5034730;28;20091;-86
2022/05/25 01:28:48;;;;;;;22.30;19.90;;;;;;;19.55;67.78;99470.25;5021922;28;20101;-86
2022/05/25 01:31:40;;;;;;;26.73;22.95;;;;;;;19.37;67.83;99443.59;5000198;28;20408;-86
2022/05/25 01:34:20;;;;;;;26.45;22.65;;;;;;;19.44;68.15;99468.38;5014499;28;20108;-86
2022/05/25 01:37:02;;;;;;;27.50;21.92;;;;;;;19.32;67.90;99448.84;5016136;28;20033;-86
2022/05/25 01:39:32;;;;;;;30.27;26.23;;;;;;;19.28;67.76;99466.41;5014464;28;20029;-86
2022/05/25 01:42:09;;;;;;;30.35;24.42;;;;;;;19.20;67.71;99440.84;5015502;28;20041;-86
2022/05/25 01:44:44;;;;;;;32.38;24.55;;;;;;;19.27;67.66;99475.50;5015182;28;20037;-86
2022/05/25 01:47:11;;;;;;;30.70;24.42;;;;;;;18.63;67.38;99365.78;5013872;28;20030;-86
2022/05/25 01:49:45;;;;;;;32.17;25.10;;;;;;;19.14;67.22;99459.69;5013826;28;20018;-86
2022/05/25 01:52:16;;;;;;;33.83;24.30;;;;;;;19.04;67.33;99458.44;5013672;28;20084;-86
2022/05/25 01:54:49;;;;;;;39.13;26.80;;;;;;;19.38;67.35;99498.78;5014909;28;20048;-86
2022/05/25 01:57:17;;;;;;;32.97;25.42;;;;;;;19.34;67.55;99500.31;5014934;28;20499;-86
2022/05/25 01:59:44;;;;;;;37.10;23.90;;;;;;;19.34;67.50;99500.31;5013555;28;20130;-86
2022/05/25 02:04:56;;;;;;;41.83;27.55;;;;;;;18.97;67.80;99472.97;5014904;28;20041;-86
2022/05/25 02:07:44;;;;;;;38.55;27.42;;;;;;;18.85;67.55;99454.28;5014620;28;20096;-86
2022/05/25 02:10:37;;;;;;;35.28;26.25;;;;;;;19.21;67.39;99512.06;5014595;28;20617;-86
2022/05/25 02:13:24;;;;;;;34.92;25.13;;;;;;;19.28;66.94;99519.97;5013124;28;20116;-86
2022/05/25 02:15:53;;;;;;;36.85;29.20;;;;;;;19.23;67.02;99526.00;5014364;28;20026;-86
2022/05/25 02:18:40;;;;;;;34.72;27.05;;;;;;;19.25;66.79;99518.56;5013424;28;20033;-86
2022/05/25 02:21:14;;;;;;;35.70;28.25;;;;;;;19.27;66.66;99523.69;5014728;28;20034;-86
2022/05/25 02:24:12;;;;;;;31.45;26.75;;;;;;;19.27;66.66;99521.00;5013382;28;20164;-86
2022/05/25 02:26:47;;;;;;;31.00;25.75;;;;;;;19.01;66.51;99491.00;5013053;28;20111;-86
2022/05/25 02:29:26;;;;;;;34.70;25.63;;;;;;;19.18;66.58;99522.41;5012605;28;20021;-86
2022/05/25 02:32:00;;;;;;;32.65;27.80;;;;;;;18.90;66.12;99456.25;5013052;28;20404;-86
2022/05/25 02:34:27;;;;;;;30.95;27.63;;;;;;;18.78;65.99;99458.94;5012808;28;20097;-86
2022/05/25 02:36:57;;;;;;;34.45;28.55;;;;;;;18.58;66.09;99424.47;5012760;28;20506;-86
2022/05/25 02:39:23;;;;;;;35.67;28.90;;;;;;;18.60;65.88;99438.44;5013814;28;20514;-86
2022/05/25 02:41:52;;;;;;;31.60;26.67;;;;;;;18.61;65.99;99437.41;5012599;28;20029;-86
2022/05/25 02:44:18;;;;;;;33.60;27.65;;;;;;;19.25;65.84;99542.66;5012784;28;20025;-86
2022/05/25 02:46:43;;;;;;;30.30;24.55;;;;;;;18.73;65.86;99474.84;5013838;28;20040;-86
2022/05/25 02:49:09;;;;;;;28.33;23.70;;;;;;;18.43;65.88;99445.50;5013966;28;20026;-85
2022/05/25 02:51:35;;;;;;;25.75;22.15;;;;;;;19.07;65.86;99540.09;5013631;28;20030;-85
2022/05/25 02:54:01;;;;;;;25.45;22.00;;;;;;;18.34;65.91;99449.56;5012578;28;20025;-85
2022/05/25 02:56:26;;;;;;;26.80;20.58;;;;;;;18.67;65.75;99479.28;5013762;28;20034;-86
2022/05/25 02:58:51;;;;;;;26.75;20.25;;;;;;;19.12;65.52;99555.47;5012353;28;20030;-85
2022/05/25 03:01:17;;;;;;;25.67;20.55;;;;;;;18.95;65.24;99528.59;5013544;28;20022;-85
2022/05/25 03:03:42;;;;;;;24.70;19.45;;;;;;;18.52;65.28;99470.84;5013836;28;20037;-85
2022/05/25 03:06:08;;;;;;;26.90;20.13;;;;;;;18.74;65.18;99508.59;5012759;28;20029;-85
2022/05/25 03:08:35;;;;;;;27.70;20.77;;;;;;;18.32;65.08;99425.72;5012596;28;20097;-86
2022/05/25 03:11:03;;;;;;;27.35;21.95;;;;;;;17.98;65.04;99386.41;5029032;28;20582;-85
2022/05/25 03:13:29;;;;;;;29.50;23.17;;;;;;;18.40;64.95;99441.41;5013651;28;20026;-85
2022/05/25 03:15:57;;;;;;;26.17;22.23;;;;;;;18.21;65.12;99452.44;5012534;28;20033;-86
2022/05/25 03:18:23;;;;;;;29.02;22.98;;;;;;;18.44;65.05;99465.84;5013589;28;20092;-85
2022/05/25 03:20:49;;;;;;;29.48;23.33;;;;;;;19.02;64.93;99572.09;5013699;28;20025;-85
2022/05/25 03:23:17;;;;;;;29.60;22.42;;;;;;;18.57;64.72;99487.00;5013593;28;20470;-85
2022/05/25 03:25:43;;;;;;;28.52;23.33;;;;;;;18.98;64.76;99574.44;5012501;28;20034;-86
2022/05/25 03:28:08;;;;;;;33.88;24.08;;;;;;;17.48;64.92;99341.31;5012365;28;20032;-85
2022/05/25 03:30:34;;;;;;;28.40;22.52;;;;;;;18.61;65.18;99541.72;5013759;28;20454;-85
2022/05/25 03:33:00;;;;;;;25.98;21.10;;;;;;;18.57;65.12;99553.03;5013772;28;20085;-85
2022/05/25 03:35:25;;;;;;;28.95;20.95;;;;;;;18.52;65.28;99545.69;5012579;28;20091;-85
2022/05/25 03:37:51;;;;;;;27.00;22.52;;;;;;;18.56;65.33;99565.59;5012176;28;20483;-85
2022/05/25 03:40:16;;;;;;;25.02;19.60;;;;;;;18.83;65.35;99600.81;5013026;28;20087;-86
2022/05/25 03:42:44;;;;;;;24.20;19.05;;;;;;;18.13;65.13;99477.63;5011954;28;20033;-86
2022/05/25 03:45:11;;;;;;;26.38;19.55;;;;;;;18.83;65.25;99589.31;5011846;28;20569;-86
2022/05/25 03:47:36;;;;;;;27.35;20.75;;;;;;;18.09;65.14;99476.47;5012814;28;20029;-85
2022/05/25 03:50:03;;;;;;;25.48;21.33;;;;;;;18.85;65.23;99597.91;5012867;28;20141;-86
2022/05/25 03:52:28;;;;;;;28.98;20.77;;;;;;;18.82;65.06;99614.44;5012605;28;20457;-85
2022/05/25 03:54:54;;;;;;;26.02;22.25;;;;;;;18.21;65.01;99493.34;5011468;28;20091;-85
2022/05/25 03:57:19;;;;;;;28.98;20.90;;;;;;;18.51;65.02;99560.13;5011381;28;20030;-85
2022/05/25 03:59:45;;;;;;;30.13;22.45;;;;;;;18.76;65.06;99608.13;5011201;28;20120;-86
2022/05/25 04:02:11;;;;;;;32.00;23.95;;;;;;;18.36;65.03;99541.84;5012642;28;20079;-85
2022/05/25 04:04:36;;;;;;;27.95;23.65;;;;;;;18.69;65.30;99592.19;5012797;28;20026;-85
2022/05/25 04:07:02;;;;;;;31.67;23.05;;;;;;;18.82;65.30;99609.06;5013081;28;20034;-86
2022/05/25 04:09:27;;;;;;;30.17;23.00;;;;;;;18.02;65.08;99492.59;5011522;28;20530;-85
2022/05/25 04:11:53;;;;;;;31.85;23.90;;;;;;;18.55;65.09;99574.66;5011426;28;20029;-85
2022/05/25 04:14:19;;;;;;;27.67;21.42;;;;;;;18.61;65.04;99583.66;5011401;28;20116;-85
2022/05/25 04:16:45;;;;;;;38.58;27.63;;;;;;;18.93;65.07;99641.19;5010947;28;20029;-86
2022/05/25 04:19:11;;;;;;;40.92;29.63;;;;;;;18.76;65.26;99650.94;5012155;28;20049;-85
2022/05/25 04:21:36;;;;;;;38.42;29.70;;;;;;;18.30;65.54;99574.81;5012320;28;20120;-85
2022/05/25 04:24:02;;;;;;;44.72;32.00;;;;;;;18.72;65.70;99647.91;5012122;28;20479;-85
2022/05/25 04:26:30;;;;;;;52.25;35.80;;;;;;;18.19;65.42;99572.91;5011957;28;20040;-85
2022/05/25 04:28:56;;;;;;;53.83;35.50;;;;;;;18.23;65.55;99559.91;5011990;28;20048;-85
2022/05/25 04:31:21;;;;;;;52.42;36.83;;;;;;;18.09;65.52;99529.91;5012277;28;20033;-87
2022/05/25 04:33:47;;;;;;;56.05;39.40;;;;;;;18.27;65.81;99598.50;5012734;28;20029;-86
2022/05/25 04:36:12;;;;;;;56.08;37.33;;;;;;;18.50;65.86;99611.16;5012969;28;20469;-85
2022/05/25 04:38:38;;;;;;;60.65;40.22;;;;;;;18.78;65.36;99640.00;5011674;28;20030;-86
2022/05/25 04:41:03;;;;;;;64.10;42.75;;;;;;;18.89;65.42;99674.81;5012220;28;20414;-86
2022/05/25 04:43:29;;;;;;;56.33;39.80;;;;;;;18.59;65.11;99612.47;5011003;28;20033;-86
2022/05/25 04:45:55;;;;;;;63.50;41.92;;;;;;;18.80;64.78;99641.41;5011141;28;20084;-86
2022/05/25 04:48:23;;;;;;;58.38;40.75;;;;;;;18.83;64.74;99626.75;5010559;28;20026;-86
2022/05/25 04:50:50;;;;;;;55.78;42.58;;;;;;;19.07;64.56;99659.72;5011314;28;20033;-85
2022/05/25 04:53:19;;;;;;;57.17;43.67;;;;;;;18.98;64.27;99662.72;5011419;28;20064;-86
2022/05/25 04:58:35;;;;;;;54.17;42.33;;;;;;;18.92;64.16;99665.50;5012280;28;20088;-86
2022/05/25 05:01:01;;;;;;;55.15;42.05;;;;;;;18.91;64.07;99674.59;5010275;28;20113;-86
2022/05/25 05:03:28;;;;;;;53.95;42.75;;;;;;;18.52;64.21;99609.88;5010451;28;20030;-86
2022/05/25 05:05:55;;;;;;;52.05;40.50;;;;;;;19.00;63.95;99686.59;5011676;28;20033;-86
2022/05/25 05:08:21;;;;;;;57.20;41.67;;;;;;;18.56;63.93;99588.84;5011371;28;20057;-86
2022/05/25 05:10:48;;;;;;;63.22;44.53;;;;;;;19.08;64.02;99672.06;5011512;28;20024;-86
2022/05/25 05:13:14;;;;;;;57.33;42.03;;;;;;;18.21;63.81;99524.59;5010089;28;20025;-85
2022/05/25 05:15:43;;;;;;;58.53;41.90;;;;;;;18.95;63.46;99636.44;5013456;28;20030;-86
2022/05/25 05:18:09;;;;;;;59.80;40.63;;;;;;;19.00;63.17;99633.06;5019620;28;20030;-86
2022/05/25 05:20:35;;;;;;;62.85;42.38;;;;;;;18.95;63.01;99620.38;5019221;28;20022;-85
2022/05/25 05:23:05;;;;;;;61.33;43.38;;;;;;;18.88;62.86;99616.19;5020590;28;20037;-85
2022/05/25 05:25:31;;;;;;;70.75;45.72;;;;;;;19.33;62.77;99680.72;5023751;28;20029;-85
2022/05/25 05:28:19;;;;;;;67.13;45.20;;;;;;;19.19;62.99;99663.22;5022186;28;20026;-86
2022/05/25 05:30:52;;;;;;;69.40;47.65;;;;;;;18.98;62.79;99627.94;5018951;28;20029;-86
2022/05/25 05:33:17;;;;;;;77.65;51.47;;;;;;;18.10;62.88;99489.59;5010653;28;20114;-86
2022/05/25 05:35:51;;;;;;;75.82;52.00;;;;;;;19.24;62.83;99676.72;5011692;28;20029;-85
2022/05/25 05:38:19;;;;;;;68.32;45.40;;;;;;;19.05;62.71;99633.19;5012762;28;20026;-86
2022/05/25 05:40:45;;;;;;;73.38;47.72;;;;;;;18.80;62.71;99606.63;5024129;28;20025;-85
2022/05/25 05:43:12;;;;;;;78.72;52.88;;;;;;;18.68;62.48;99584.41;5011924;28;20026;-85
2022/05/25 05:45:42;;;;;;;80.65;52.38;;;;;;;18.95;62.53;99615.03;5019917;28;20021;-85
2022/05/25 05:48:10;;;;;;;73.35;46.92;;;;;;;17.97;62.61;99449.72;5013568;28;20022;-86
2022/05/25 05:50:38;;;;;;;74.15;46.92;;;;;;;18.88;62.59;99608.97;5018253;28;20029;-84
2022/05/25 05:53:06;;;;;;;67.47;44.50;;;;;;;18.88;62.37;99589.44;5036445;28;20105;-84
2022/05/25 05:55:33;;;;;;;73.55;47.17;;;;;;;19.41;62.43;99690.28;5012957;28;20022;-86
2022/05/25 05:57:58;;;;;;;68.50;43.72;;;;;;;19.00;62.46;99606.31;5012785;28;20477;-85
2022/05/25 06:00:24;;;;;;;66.60;44.53;;;;;;;18.72;62.41;99572.19;5022801;28;20025;-85
2022/05/25 06:02:50;;;;;;;69.75;43.92;;;;;;;19.32;62.42;99671.88;5011917;28;20034;-85
2022/05/25 06:05:16;;;;;;;68.72;45.28;;;;;;;18.80;62.34;99611.16;5022144;28;20026;-85
2022/05/25 06:07:41;;;;;;;69.78;45.65;;;;;;;18.61;62.39;99544.38;5021496;28;20029;-85
2022/05/25 06:10:08;;;;;;;64.47;44.05;;;;;;;19.11;62.36;99608.19;5036036;28;20026;-86
2022/05/25 06:12:34;;;;;;;64.20;43.15;;;;;;;19.25;62.42;99632.84;5034214;28;20032;-85
2022/05/25 06:19:25;;;;;;;60.30;41.13;;;;;;;19.61;62.42;99698.81;5044931;28;20030;-84
2022/05/25 06:20:29;;;;;;;57.72;42.45;;;;;;;19.47;62.60;99674.09;5019285;28;20546;-88
2022/05/25 06:22:54;;;;;;;58.28;41.72;;;;;;;19.68;62.58;99703.00;5030389;28;20033;-85
2022/05/25 06:25:20;;;;;;;54.63;40.30;;;;;;;19.79;62.41;99705.91;5034050;28;20029;-85
2022/05/25 06:27:45;;;;;;;58.13;43.28;;;;;;;19.45;62.53;99648.59;5022928;28;20111;-86
2022/05/25 06:30:11;;;;;;;59.33;42.83;;;;;;;19.23;62.14;99587.59;5032445;28;20024;-85
2022/05/25 06:32:37;;;;;;;61.35;43.85;;;;;;;19.35;62.21;99622.41;5041359;28;20581;-84
2022/05/25 06:35:02;;;;;;;58.40;45.03;;;;;;;19.57;62.28;99649.44;5017733;28;20044;-86
2022/05/25 06:37:28;;;;;;;62.90;49.05;;;;;;;19.45;62.28;99643.25;5030951;28;20513;-85
2022/05/25 06:39:53;;;;;;;62.63;48.15;;;;;;;19.74;62.11;99657.59;5033764;28;20558;-84
2022/05/25 06:42:19;;;;;;;66.15;50.45;;;;;;;19.86;62.31;99675.28;5033243;28;20487;-84
2022/05/25 06:44:44;;;;;;;62.10;49.38;;;;;;;19.85;62.23;99688.91;5039970;28;20029;-87
2022/05/25 06:47:15;;;;;;;65.60;50.58;;;;;;;19.63;62.20;99609.16;5023125;28;20030;-86
2022/05/25 06:49:40;;;;;;;65.03;52.80;;;;;;;20.37;62.22;99707.72;5024189;28;20161;-86
2022/05/25 06:52:12;;;;;;;63.10;50.50;;;;;;;20.19;61.56;99647.84;5019131;28;20880;-85
2022/05/25 06:54:38;;;;;;;58.03;46.30;;;;;;;20.47;61.67;99681.13;5019293;28;20498;-86
2022/05/25 06:57:04;;;;;;;51.22;42.90;;;;;;;20.68;61.65;99720.69;5043597;28;20136;-85
2022/05/25 06:59:29;;;;;;;51.60;42.55;;;;;;;19.59;61.50;99540.22;5057325;28;20071;-84
2022/05/25 07:01:55;;;;;;;51.17;44.75;;;;;;;20.78;61.65;99706.66;5056620;28;20561;-85
2022/05/25 07:04:21;;;;;;;52.60;46.92;;;;;;;20.42;61.52;99648.84;5052394;28;20407;-84
2022/05/25 07:06:46;;;;;;;50.17;44.72;;;;;;;20.40;60.95;99622.25;5021605;28;20088;-85
2022/05/25 07:09:12;;;;;;;57.15;47.03;;;;;;;21.02;60.80;99708.19;5032451;28;20029;-85
2022/05/25 07:11:39;;;;;;;53.78;46.75;;;;;;;20.98;61.10;99699.00;5018555;28;20104;-87
2022/05/25 07:14:05;;;;;;;59.40;48.00;;;;;;;20.50;60.84;99584.06;5038516;28;20040;-86
2022/05/25 07:16:32;;;;;;;57.47;46.50;;;;;;;20.85;60.32;99640.25;5043374;28;20424;-85
2022/05/25 07:18:58;;;;;;;55.65;46.33;;;;;;;20.98;60.70;99684.75;5021734;28;20095;-86
2022/05/25 07:21:27;;;;;;;47.65;41.70;;;;;;;21.29;60.74;99724.50;5018260;28;20076;-86
2022/05/25 07:23:54;;;;;;;29.35;26.50;;;;;;;20.81;60.10;99653.34;5024570;28;20108;-85
2022/05/25 07:26:22;;;;;;;26.27;23.50;;;;;;;21.35;59.96;99723.53;5029580;28;20026;-86
2022/05/25 07:28:48;;;;;;;39.35;31.52;;;;;;;21.43;59.86;99733.88;5036136;28;20632;-85
2022/05/25 07:31:29;;;;;;;30.58;27.33;;;;;;;20.98;59.51;99645.31;5024563;28;20120;-85
2022/05/25 07:34:14;;;;;;;30.55;27.30;;;;;;;21.02;59.39;99640.25;5050492;28;20036;-85
2022/05/25 07:36:42;;;;;;;29.63;26.52;;;;;;;21.41;58.26;99692.19;5045516;28;20498;-86
2022/05/25 07:39:13;;;;;;;26.10;23.55;;;;;;;21.29;58.21;99656.56;5028605;28;20036;-85
2022/05/25 07:41:42;;;;;;;25.33;22.65;;;;;;;21.50;58.39;99701.47;5035970;28;20156;-85
2022/05/25 07:44:13;;;;;;;30.33;24.98;;;;;;;20.27;58.16;99473.19;5042688;28;20506;-86
2022/05/25 07:46:38;;;;;;;22.50;20.17;;;;;;;21.67;57.71;99706.84;5035796;28;20457;-86
2022/05/25 07:49:04;;;;;;;21.27;18.88;;;;;;;21.71;57.50;99702.63;5030912;28;20029;-86
2022/05/25 07:51:29;;;;;;;21.45;19.15;;;;;;;21.77;57.41;99712.38;5032309;28;20100;-86
2022/05/25 07:53:58;;;;;;;22.17;19.95;;;;;;;21.50;57.08;99642.38;5047476;28;20081;-86
2022/05/25 07:56:25;;;;;;;20.20;18.10;;;;;;;21.89;56.88;99696.97;5026556;28;20037;-86
2022/05/25 07:58:50;;;;;;;24.55;22.35;;;;;;;21.95;56.45;99684.41;5027024;28;20437;-86
2022/05/25 08:05:43;;;;;;;21.33;19.08;;;;;;;22.38;56.59;99742.84;5025448;28;20040;-86
2022/05/25 08:06:49;;;;;;;19.42;17.35;;;;;;;21.91;56.41;99646.44;5034319;28;20188;-86
2022/05/25 08:09:15;;;;;;;21.40;19.40;;;;;;;22.11;55.67;99664.75;5017178;28;20584;-86
2022/05/25 08:11:40;;;;;;;20.48;18.38;;;;;;;22.57;55.49;99727.19;5031089;28;20547;-87
2022/05/25 08:14:06;;;;;;;20.90;18.67;;;;;;;22.72;55.24;99755.06;5030619;28;20422;-86
2022/05/25 08:16:32;;;;;;;22.15;18.83;;;;;;;22.35;55.02;99674.19;5019682;28;20037;-85
2022/05/25 08:18:57;;;;;;;23.70;21.50;;;;;;;22.72;55.31;99733.53;5022551;28;20021;-86
2022/05/25 08:21:22;;;;;;;26.42;23.63;;;;;;;22.31;54.90;99680.34;5027687;28;20037;-85
2022/05/25 08:23:48;;;;;;;27.30;24.55;;;;;;;22.70;54.78;99730.28;5040924;28;20450;-86
2022/05/25 08:26:13;;;;;;;26.05;23.58;;;;;;;22.92;54.70;99745.63;5029462;28;20487;-85
2022/05/25 08:28:39;;;;;;;24.17;21.90;;;;;;;22.56;54.23;99669.84;5032022;28;20032;-85
2022/05/25 08:31:05;;;;;;;21.95;19.95;;;;;;;23.10;53.91;99731.81;5025708;28;20104;-83
2022/05/25 08:33:31;;;;;;;22.65;20.42;;;;;;;22.76;53.99;99667.38;5030460;28;20036;-84
2022/05/25 08:35:56;;;;;;;25.17;22.92;;;;;;;22.86;53.63;99671.25;5025903;28;20482;-84
2022/05/25 08:38:22;;;;;;;24.05;21.85;;;;;;;22.95;53.59;99683.19;5027483;28;20033;-84
2022/05/25 08:40:49;;;;;;;21.08;18.90;;;;;;;23.12;53.51;99706.25;5028550;28;20112;-86
2022/05/25 08:43:24;;;;;;;17.77;15.90;;;;;;;23.41;53.49;99730.19;5026881;28;20033;-86
2022/05/25 08:45:58;;;;;;;20.08;14.50;;;;;;;23.48;53.37;99724.59;5017686;28;20036;-86
2022/05/25 08:48:29;;;;;;;21.98;15.07;;;;;;;23.25;53.38;99675.38;5019459;28;20037;-85
2022/05/25 08:51:17;;;;;;;15.15;13.63;;;;;;;22.81;52.81;99569.72;5017208;28;20064;-86
2022/05/25 08:53:43;;;;;;;21.52;19.52;;;;;;;24.08;52.84;99743.09;5011855;28;20050;-85
2022/05/25 08:56:18;;;;;;;31.27;28.65;;;;;;;24.16;52.18;99749.88;5012840;28;20032;-86
2022/05/25 08:58:51;;;;;;;33.38;30.48;;;;;;;24.31;51.96;99752.69;5023883;28;20608;-85
2022/05/25 09:01:47;;;;;;;36.08;33.13;;;;;;;23.99;51.93;99696.94;5018243;28;20057;-85
2022/05/25 09:04:37;;;;;;;26.70;24.23;;;;;;;24.41;51.24;99763.53;5002374;28;20104;-85
2022/05/25 09:07:21;;;;;;;30.15;27.55;;;;;;;24.24;51.80;99754.78;5029607;28;20078;-85
2022/05/25 09:09:49;;;;;;;33.70;31.02;;;;;;;24.22;52.03;99773.13;5029664;28;20025;-85
2022/05/25 09:12:26;;;;;;;33.33;30.48;;;;;;;22.16;51.84;99460.41;5030229;28;20379;-86
2022/05/25 09:15:07;;;;;;;35.03;31.92;;;;;;;24.02;52.23;99760.34;5029642;28;20025;-86
2022/05/25 09:17:43;;;;;;;29.90;27.60;;;;;;;23.89;52.11;99717.66;5031683;28;20068;-86
2022/05/25 09:20:13;;;;;;;29.58;27.20;;;;;;;23.92;51.17;99672.09;5019712;28;20029;-86
2022/05/25 09:22:41;;;;;;;35.92;32.83;;;;;;;24.86;50.67;99737.78;5024029;28;20469;-85
2022/05/25 09:25:08;;;;;;;36.22;33.38;;;;;;;24.98;49.84;99716.75;5014825;28;20551;-86
2022/05/25 09:27:53;;;;;;;37.30;34.10;;;;;;;25.36;49.75;99715.47;5029992;28;20079;-85
2022/05/25 09:30:18;;;;;;;33.40;30.80;;;;;;;25.63;49.35;99761.94;5019099;28;20026;-85
2022/05/25 09:33:01;;;;;;;37.17;34.08;;;;;;;25.77;48.91;99766.84;5024021;28;20063;-85
2022/05/25 09:35:33;;;;;;;34.17;31.30;;;;;;;25.74;49.24;99746.56;5018514;28;20120;-86
2022/05/25 09:38:03;;;;;;;33.28;30.25;;;;;;;25.72;48.92;99745.19;5023675;28;20100;-86
2022/05/25 09:40:38;;;;;;;32.25;29.15;;;;;;;25.76;48.15;99757.91;5021716;28;20041;-86
2022/05/25 09:43:08;;;;;;;36.35;33.20;;;;;;;25.78;48.17;99747.63;5022192;28;20499;-86
2022/05/25 09:45:40;;;;;;;32.90;30.00;;;;;;;25.78;48.73;99752.22;5027952;28;20040;-85
2022/05/25 09:48:15;;;;;;;32.15;29.10;;;;;;;26.10;47.85;99741.09;5059351;28;20033;-86
2022/05/25 09:50:49;;;;;;;28.63;25.80;;;;;;;26.24;47.69;99744.84;5067808;28;20033;-85
2022/05/25 09:53:17;;;;;;;33.53;30.40;;;;;;;26.29;47.45;99742.09;5037540;28;20096;-86
2022/05/25 09:55:45;;;;;;;31.58;28.83;;;;;;;26.22;47.52;99737.00;5037324;28;20042;-85
2022/05/25 09:58:33;;;;;;;28.95;26.27;;;;;;;26.11;47.61;99705.63;5037904;28;20514;-85
2022/05/25 10:01:16;;;;;;;27.50;24.98;;;;;;;26.42;47.37;99727.19;5032771;28;20068;-85
2022/05/25 10:03:44;;;;;;;29.20;26.25;;;;;;;26.77;46.89;99724.31;5016661;28;20025;-85
2022/05/25 10:06:19;;;;;;;27.77;24.95;;;;;;;27.04;46.30;99721.19;5031516;28;20030;-85
2022/05/25 10:08:49;;;;;;;25.55;23.23;;;;;;;27.19;45.49;99677.72;5055302;28;20021;-85
2022/05/25 10:11:33;;;;;;;22.38;20.15;;;;;;;27.58;43.92;99674.13;5036130;28;20026;-85
2022/05/25 10:14:18;;;;;;;24.77;22.17;;;;;;;27.95;43.79;99711.47;5029477;28;20041;-86
2022/05/25 10:16:44;;;;;;;18.42;16.52;;;;;;;27.60;43.71;99663.78;5031936;28;20447;-83
2022/05/25 10:19:13;;;;;;;18.10;16.20;;;;;;;28.43;43.42;99722.34;5032907;28;20052;-85
2022/05/25 10:21:45;;;;;;;19.17;15.63;;;;;;;28.67;42.85;99720.41;5019166;28;20033;-86
2022/05/25 10:24:35;;;;;;;20.08;18.05;;;;;;;28.87;42.88;99718.50;5015953;28;20026;-84
2022/05/25 10:27:03;;;;;;;17.05;15.20;;;;;;;29.00;42.25;99718.63;5020868;28;20054;-85
2022/05/25 10:38:27;;;;;;;14.27;12.15;;;;;;;29.91;40.12;99699.94;5025586;28;20102;-85
2022/05/25 10:40:57;;;;;;;14.15;12.65;;;;;;;29.99;39.91;99712.03;5014825;28;20056;-85
2022/05/25 10:43:30;;;;;;;12.57;11.25;;;;;;;29.87;39.69;99695.41;5016955;28;20203;-85
2022/05/25 10:46:00;;;;;;;14.00;12.45;;;;;;;29.96;39.53;99728.97;5021192;28;20086;-86
2022/05/25 10:48:57;;;;;;;14.10;12.80;;;;;;;30.02;39.29;99703.31;5034575;28;20033;-85
2022/05/25 10:51:31;;;;;;;13.43;11.93;;;;;;;30.11;38.98;99696.03;5046141;28;20071;-85
2022/05/25 10:57:10;;;;;;;13.25;11.85;;;;;;;30.31;39.22;99683.91;5030299;28;20044;-85
2022/05/25 10:59:39;;;;;;;13.10;11.75;;;;;;;30.32;38.88;99686.31;5033395;28;20084;-86
2022/05/25 11:02:26;;;;;;;14.07;12.68;;;;;;;30.46;38.18;99690.94;5030371;28;20561;-85
2022/05/25 11:05:14;;;;;;;15.43;12.88;;;;;;;30.51;38.47;99694.41;5028162;28;20532;-83
2022/05/25 11:07:42;;;;;;;12.73;10.82;;;;;;;30.71;38.04;99682.25;5045155;28;20036;-85
2022/05/25 11:10:13;;;;;;;15.75;12.80;;;;;;;30.82;37.75;99683.63;5025547;28;20025;-86
2022/05/25 11:13:22;;;;;;;15.80;13.48;;;;;;;30.99;38.01;99680.22;5032107;28;20036;-86
2022/05/25 11:15:48;;;;;;;15.10;13.52;;;;;;;31.12;37.62;99673.09;5017615;28;20034;-85
2022/05/25 11:18:16;;;;;;;16.77;13.85;;;;;;;31.25;37.54;99680.47;5019163;28;20038;-85
2022/05/25 11:21:08;;;;;;;14.75;13.23;;;;;;;31.29;36.08;99681.44;5032714;28;20045;-84
2022/05/25 11:23:56;;;;;;;13.52;12.23;;;;;;;31.33;37.08;99682.44;5032802;28;20022;-85
2022/05/25 11:26:46;;;;;;;14.48;12.10;;;;;;;31.36;36.90;99679.09;5022148;28;20171;-85
2022/05/25 11:29:42;;;;;;;12.65;11.38;;;;;;;31.40;36.81;99680.06;5032471;28;20421;-85
2022/05/25 11:32:14;;;;;;;11.32;10.25;;;;;;;31.35;36.42;99679.41;5030981;28;20391;-85
2022/05/25 11:35:00;;;;;;;11.45;10.35;;;;;;;31.29;36.64;99674.06;5019985;28;20428;-83
2022/05/25 11:37:41;;;;;;;10.13;9.25;;;;;;;31.32;36.52;99685.47;5038963;28;20037;-83
2022/05/25 11:40:07;;;;;;;10.25;9.30;;;;;;;31.41;36.21;99680.88;5053712;28;20097;-84
2022/05/25 11:42:53;;;;;;;10.68;9.65;;;;;;;31.47;36.23;99677.69;5037615;28;20045;-83
2022/05/25 11:45:34;;;;;;;10.20;9.30;;;;;;;31.53;36.02;99673.72;5045637;28;20022;-84
2022/05/25 11:48:11;;;;;;;9.45;8.18;;;;;;;31.64;35.81;99666.06;5032012;28;20022;-84
2022/05/25 11:50:51;;;;;;;9.80;8.82;;;;;;;31.74;35.30;99663.06;5030221;28;20044;-86
2022/05/25 11:53:48;;;;;;;10.30;9.30;;;;;;;31.64;35.73;99621.56;5020329;28;20053;-84
2022/05/25 11:56:32;;;;;;;10.27;9.18;;;;;;;31.83;35.71;99649.47;5028878;28;20460;-84
2022/05/25 11:59:39;;;;;;;9.63;8.68;;;;;;;31.92;35.47;99639.38;5016573;28;20029;-83